Terminal Aerodrome Forecast
Issued by NWS Wilmington, OH

Current Version | Previous Version | Graphics & Text | Print | Product List | Glossary On
Versions: 1 2 3 4 5 6 7 8 9 10 11 12 13 14 15 16 17 18 19 20 21 22 23 24 25 26 27
000
FTUS41 KILN 260800 AAA
TAFCVG
TAF AMD
KCVG 260857Z 2609/2712 35015KT P6SM OVC015
      TEMPO 2609/2612 OVC022
     FM261200 33013KT P6SM OVC018
     FM261700 32010KT P6SM SCT018 BKN200
     FM262200 35005KT P6SM FEW020 SCT090=

USA.gov is the U.S. government's official web portal to all federal, state and local government web resources and services.